Time;durP1;ratioP1;P1;durP2;ratioP2;P2;SDS_P1;SDS_P2;PMS_P1;PMS_P2;Temp;Humidity;BMP_temperature;BMP_pressure;BME280_temperature;BME280_humidity;BME280_pressure;Samples;Min_cycle;Max_cycle;Signal;HPM_P1;HPM_P2
2022/11/19 00:01:25;;;;;;;12.88;3.92;;;11.10;99.90;;;;;;4962707;28;1461727;-66
2022/11/19 00:04:28;;;;;;;19.63;5.07;;;11.00;99.90;;;;;;5013916;28;20041;-66
2022/11/19 00:07:32;;;;;;;19.42;5.63;;;10.90;99.90;;;;;;5013846;28;20049;-67
2022/11/19 00:10:37;;;;;;;15.35;4.93;;;10.80;99.90;;;;;;5014161;28;20405;-66
2022/11/19 00:13:42;;;;;;;20.75;6.53;;;10.80;99.90;;;;;;5013413;28;20041;-67
2022/11/19 00:16:47;;;;;;;19.73;5.28;;;10.80;99.90;;;;;;5014071;28;20049;-66
2022/11/19 00:19:51;;;;;;;17.88;5.75;;;10.80;99.90;;;;;;5013825;28;20041;-66
2022/11/19 00:22:56;;;;;;;19.33;6.03;;;10.70;99.90;;;;;;5013942;28;20036;-66
2022/11/19 00:26:18;;;;;;;20.02;5.32;;;10.70;99.90;;;;;;5013302;28;20052;-66
2022/11/19 00:29:22;;;;;;;18.38;5.22;;;10.60;99.90;;;;;;5013473;28;20114;-66
2022/11/19 00:32:27;;;;;;;26.08;5.53;;;10.70;99.90;;;;;;5013317;28;20053;-66
2022/11/19 00:35:31;;;;;;;16.65;4.05;;;10.70;99.90;;;;;;5012993;28;20393;-66
2022/11/19 00:38:36;;;;;;;22.17;4.40;;;10.70;99.90;;;;;;5013563;28;20045;-66
2022/11/19 00:41:39;;;;;;;18.83;3.95;;;10.80;99.90;;;;;;5013326;28;20045;-67
2022/11/19 00:44:43;;;;;;;19.17;3.20;;;10.90;99.90;;;;;;5012744;28;20069;-67
2022/11/19 00:47:47;;;;;;;13.02;3.58;;;10.90;99.90;;;;;;5013307;28;20048;-67
2022/11/19 00:50:52;;;;;;;20.70;5.88;;;10.90;99.90;;;;;;5013257;28;20437;-67
2022/11/19 00:53:57;;;;;;;19.67;4.63;;;10.70;99.90;;;;;;5012972;28;20527;-67
2022/11/19 00:57:01;;;;;;;21.58;4.68;;;10.60;99.90;;;;;;5012953;28;20393;-67
2022/11/19 01:00:05;;;;;;;22.40;6.50;;;10.60;99.90;;;;;;5013267;28;20041;-67
2022/11/19 01:03:09;;;;;;;22.83;5.78;;;10.60;99.90;;;;;;5012838;28;20053;-66
2022/11/19 01:06:16;;;;;;;20.05;7.10;;;10.60;99.90;;;;;;5013123;28;20045;-67
2022/11/19 01:09:20;;;;;;;16.20;5.82;;;10.60;99.90;;;;;;5012692;28;20045;-67
2022/11/19 01:12:23;;;;;;;20.67;5.82;;;10.60;99.90;;;;;;5011855;28;20053;-67
2022/11/19 01:15:28;;;;;;;17.40;5.15;;;10.50;99.90;;;;;;5012502;28;20508;-67
2022/11/19 01:18:32;;;;;;;27.55;6.68;;;10.50;99.90;;;;;;5012749;28;20101;-67
2022/11/19 01:21:37;;;;;;;22.13;6.45;;;10.40;99.90;;;;;;5012811;28;20109;-67
2022/11/19 01:24:41;;;;;;;17.38;5.93;;;10.30;99.90;;;;;;5012373;28;20057;-67
2022/11/19 01:27:45;;;;;;;16.58;6.20;;;10.30;99.90;;;;;;5012572;28;20049;-67
2022/11/19 01:30:51;;;;;;;35.35;9.85;;;10.30;99.90;;;;;;5012227;28;20041;-67
2022/11/19 01:33:55;;;;;;;23.65;7.57;;;10.20;99.90;;;;;;5012317;28;20515;-67
2022/11/19 01:36:59;;;;;;;21.02;7.70;;;10.20;99.90;;;;;;5012449;28;20044;-66
2022/11/19 01:40:03;;;;;;;18.40;6.82;;;10.20;99.90;;;;;;5012330;28;20049;-67
2022/11/19 01:43:10;;;;;;;15.95;7.82;;;10.10;99.90;;;;;;5011341;28;20056;-67
2022/11/19 01:46:19;;;;;;;23.63;8.52;;;10.10;99.90;;;;;;5012273;28;20045;-67
2022/11/19 01:49:22;;;;;;;22.42;8.10;;;10.10;99.90;;;;;;5011310;28;20521;-67
2022/11/19 01:52:26;;;;;;;21.80;7.57;;;10.20;99.90;;;;;;5012202;28;20052;-66
2022/11/19 01:55:30;;;;;;;31.00;8.10;;;10.10;99.90;;;;;;5011963;28;20060;-67
2022/11/19 01:58:44;;;;;;;19.75;8.60;;;10.10;99.90;;;;;;5011976;28;20045;-67
2022/11/19 02:01:49;;;;;;;26.48;6.72;;;10.10;99.90;;;;;;5011906;28;20049;-66
2022/11/19 02:04:56;;;;;;;18.20;7.47;;;10.10;99.90;;;;;;5011854;28;20048;-67
2022/11/19 02:08:04;;;;;;;25.85;9.02;;;10.10;99.90;;;;;;5011871;28;20508;-67
2022/11/19 02:11:36;;;;;;;21.85;8.32;;;10.20;99.90;;;;;;5011553;28;20388;-67
2022/11/19 02:15:15;;;;;;;26.27;7.97;;;10.30;99.90;;;;;;5011579;28;20041;-67
2022/11/19 02:18:51;;;;;;;23.33;7.53;;;10.30;99.90;;;;;;5016416;28;20060;-66
2022/11/19 02:22:33;;;;;;;22.67;8.30;;;10.30;99.90;;;;;;5011731;28;20049;-67
2022/11/19 02:25:38;;;;;;;20.50;7.55;;;10.20;99.90;;;;;;5010370;28;20049;-67
2022/11/19 02:28:52;;;;;;;20.48;8.23;;;10.30;99.90;;;;;;5011614;28;20472;-67
2022/11/19 02:32:07;;;;;;;26.48;8.50;;;10.30;99.90;;;;;;5011642;28;20053;-67
2022/11/19 02:35:26;;;;;;;36.13;9.73;;;10.30;99.90;;;;;;5011082;28;20388;-67
2022/11/19 02:38:40;;;;;;;31.52;9.20;;;10.20;99.90;;;;;;5011657;28;20041;-67
2022/11/19 02:42:10;;;;;;;26.38;9.80;;;10.20;99.90;;;;;;5011599;28;20037;-67
2022/11/19 02:45:45;;;;;;;31.42;9.65;;;10.20;99.90;;;;;;5011294;28;20516;-67
2022/11/19 02:48:52;;;;;;;37.17;10.82;;;10.00;99.90;;;;;;5011657;28;20049;-67
2022/11/19 02:51:56;;;;;;;26.88;8.85;;;10.00;99.90;;;;;;5011299;28;20049;-67
2022/11/19 02:55:01;;;;;;;19.85;8.75;;;10.00;99.90;;;;;;5011019;28;20049;-67
2022/11/19 03:04:28;;;;;;;25.08;9.23;;;10.10;99.90;;;;;;5011442;28;20048;-67
2022/11/19 03:05:13;;;;;;;21.63;8.10;;;10.10;99.90;;;;;;5010786;28;20053;-66
2022/11/19 03:08:18;;;;;;;;;;;10.10;99.90;;;;;;5011925;28;20045;-66
2022/11/19 03:11:25;;;;;;;29.58;8.25;;;10.20;99.90;;;;;;5011164;28;19920;-67
2022/11/19 03:18:49;;;;;;;32.47;9.18;;;10.30;99.90;;;;;;5010998;28;20039;-67
2022/11/19 03:22:02;;;;;;;22.38;8.15;;;10.30;99.90;;;;;;5027171;28;20048;-67
2022/11/19 03:25:39;;;;;;;26.52;10.45;;;10.30;99.90;;;;;;5010815;28;20057;-66
2022/11/19 03:28:46;;;;;;;22.67;9.55;;;10.40;99.90;;;;;;5012550;28;20049;-66
2022/11/19 03:31:57;;;;;;;24.70;7.88;;;10.30;99.90;;;;;;5011139;28;20377;-66
2022/11/19 03:35:07;;;;;;;25.50;8.07;;;10.30;99.90;;;;;;5010791;28;20041;-66
2022/11/19 03:38:16;;;;;;;23.27;7.50;;;10.20;99.90;;;;;;5014739;28;20385;-67
2022/11/19 03:41:23;;;;;;;24.65;8.98;;;10.20;99.90;;;;;;5014529;28;20496;-67
2022/11/19 03:44:37;;;;;;;26.98;8.40;;;10.10;99.90;;;;;;5014140;28;20057;-67
2022/11/19 03:47:44;;;;;;;19.63;7.38;;;10.10;99.90;;;;;;5014442;28;20041;-67
2022/11/19 03:51:01;;;;;;;28.55;8.77;;;10.10;99.90;;;;;;5014166;28;20044;-67
2022/11/19 03:54:07;;;;;;;18.90;8.27;;;10.10;99.90;;;;;;5013276;28;20048;-67
2022/11/19 03:57:15;;;;;;;24.27;7.45;;;10.10;99.90;;;;;;5014310;28;20401;-66
2022/11/19 04:00:19;;;;;;;20.92;7.63;;;10.10;99.90;;;;;;5013169;28;20033;-67
2022/11/19 04:03:23;;;;;;;19.25;7.57;;;10.10;99.90;;;;;;5013944;28;20064;-66
2022/11/19 04:06:28;;;;;;;20.45;8.02;;;10.10;99.90;;;;;;5014254;28;20049;-66
2022/11/19 04:09:33;;;;;;;23.98;7.75;;;10.10;99.90;;;;;;5014178;28;20045;-66
2022/11/19 04:12:37;;;;;;;30.02;9.45;;;10.00;99.90;;;;;;5013762;28;20053;-66
2022/11/19 04:15:41;;;;;;;22.42;8.20;;;10.00;99.90;;;;;;5013875;28;20045;-67
2022/11/19 04:18:45;;;;;;;18.63;7.95;;;10.00;99.90;;;;;;5014098;28;20041;-67
2022/11/19 04:21:50;;;;;;;24.63;8.93;;;10.00;99.90;;;;;;5013877;28;20393;-67
2022/11/19 04:24:54;;;;;;;29.52;9.68;;;10.00;99.90;;;;;;5013660;28;20060;-67
2022/11/19 04:27:57;;;;;;;30.42;8.73;;;10.00;99.90;;;;;;5013718;28;20460;-67
2022/11/19 04:31:02;;;;;;;23.00;8.70;;;10.10;99.90;;;;;;5013701;28;20049;-67
2022/11/19 04:34:06;;;;;;;27.83;8.32;;;10.10;99.90;;;;;;5012988;28;20515;-67
2022/11/19 04:37:10;;;;;;;27.35;8.20;;;10.10;99.90;;;;;;5013225;28;20397;-67
2022/11/19 04:40:14;;;;;;;30.23;8.85;;;10.10;99.90;;;;;;5013517;28;20041;-67
2022/11/19 04:43:18;;;;;;;23.45;8.98;;;10.00;99.90;;;;;;5013122;28;20053;-67
2022/11/19 04:46:23;;;;;;;25.85;8.93;;;10.00;99.90;;;;;;5013029;28;20049;-66
2022/11/19 04:49:28;;;;;;;23.17;8.32;;;10.00;99.90;;;;;;5013237;28;20489;-67
2022/11/19 04:52:32;;;;;;;26.80;8.35;;;10.00;99.90;;;;;;5012810;28;20389;-67
2022/11/19 04:55:35;;;;;;;19.95;7.43;;;9.90;99.90;;;;;;5012779;28;20045;-67
2022/11/19 04:58:40;;;;;;;28.50;8.13;;;10.00;99.90;;;;;;5012923;28;20045;-67
2022/11/19 05:01:44;;;;;;;17.73;7.32;;;10.00;99.90;;;;;;5012792;28;20041;-67
2022/11/19 05:04:48;;;;;;;19.70;7.80;;;10.00;99.90;;;;;;5012788;28;20045;-67
2022/11/19 05:07:53;;;;;;;28.98;7.53;;;10.00;99.90;;;;;;5012828;28;20064;-67
2022/11/19 05:10:57;;;;;;;27.25;7.80;;;10.10;99.90;;;;;;5013018;28;20508;-67
2022/11/19 05:14:01;;;;;;;20.08;7.32;;;10.00;99.90;;;;;;5012607;28;20053;-67
2022/11/19 05:17:05;;;;;;;23.42;8.13;;;10.00;99.90;;;;;;5012647;28;20409;-67
2022/11/19 05:20:10;;;;;;;21.85;8.10;;;10.00;99.90;;;;;;5012904;28;20049;-67
2022/11/19 05:23:15;;;;;;;19.92;7.70;;;10.00;99.90;;;;;;5012255;28;20037;-67
2022/11/19 05:26:19;;;;;;;18.95;7.32;;;10.00;99.90;;;;;;5012878;28;20065;-67
2022/11/19 05:29:23;;;;;;;22.17;8.15;;;10.00;99.90;;;;;;5012445;28;20086;-67
2022/11/19 05:32:27;;;;;;;23.58;9.02;;;10.00;99.90;;;;;;5011792;28;20048;-66
2022/11/19 05:35:31;;;;;;;14.98;6.28;;;10.00;99.90;;;;;;5012237;28;20121;-67
2022/11/19 05:38:36;;;;;;;17.08;8.25;;;10.00;99.90;;;;;;5012472;28;20057;-67
2022/11/19 05:41:41;;;;;;;27.80;9.35;;;9.90;99.90;;;;;;5012168;28;20041;-67
2022/11/19 05:44:45;;;;;;;28.52;8.45;;;9.90;99.90;;;;;;5011945;28;20523;-66
2022/11/19 05:47:53;;;;;;;27.65;8.93;;;9.90;99.90;;;;;;5012123;28;20048;-67
2022/11/19 05:50:57;;;;;;;20.27;8.10;;;9.80;99.90;;;;;;5012439;28;20061;-67
2022/11/19 05:54:01;;;;;;;17.48;6.50;;;9.70;99.90;;;;;;5011917;28;20045;-66
2022/11/19 05:57:05;;;;;;;21.17;6.80;;;9.70;99.90;;;;;;5011938;28;20052;-67
2022/11/19 06:00:10;;;;;;;16.75;6.63;;;9.80;99.90;;;;;;5011793;28;20036;-67
2022/11/19 06:03:18;;;;;;;28.52;7.20;;;9.80;99.90;;;;;;5011900;28;20048;-67
2022/11/19 06:06:24;;;;;;;19.33;7.03;;;9.80;99.90;;;;;;5012019;28;20048;-66
2022/11/19 06:09:28;;;;;;;21.27;7.70;;;9.80;99.90;;;;;;5012068;28;20049;-66
2022/11/19 06:12:32;;;;;;;24.23;7.13;;;9.80;99.90;;;;;;5011777;28;20076;-66
2022/11/19 06:15:37;;;;;;;16.73;6.80;;;9.80;99.90;;;;;;5011576;28;20504;-67
2022/11/19 06:18:41;;;;;;;23.52;7.53;;;9.80;99.90;;;;;;5011536;28;20060;-66
2022/11/19 06:21:47;;;;;;;27.38;10.00;;;9.80;99.90;;;;;;5011891;28;20045;-67
2022/11/19 06:24:52;;;;;;;29.00;8.05;;;9.80;99.90;;;;;;5011452;28;20504;-67
2022/11/19 06:27:56;;;;;;;19.73;7.63;;;9.80;99.90;;;;;;5011875;28;20389;-67
2022/11/19 06:31:02;;;;;;;23.67;9.57;;;9.80;99.90;;;;;;5011466;28;20041;-66
2022/11/19 06:34:07;;;;;;;26.02;9.20;;;9.80;99.90;;;;;;5011163;28;20045;-67
2022/11/19 06:37:11;;;;;;;22.83;8.90;;;9.90;99.90;;;;;;5011612;28;20048;-67
2022/11/19 06:40:16;;;;;;;19.23;9.45;;;9.90;99.90;;;;;;5011741;28;20044;-67
2022/11/19 06:43:20;;;;;;;22.95;9.48;;;9.90;99.90;;;;;;5011482;28;20048;-66
2022/11/19 06:46:24;;;;;;;17.08;9.68;;;10.00;99.90;;;;;;5011540;28;20048;-67
2022/11/19 06:49:28;;;;;;;26.75;9.02;;;10.00;99.90;;;;;;5011584;28;20072;-66
2022/11/19 06:52:33;;;;;;;20.70;6.65;;;10.00;99.90;;;;;;5011575;28;20386;-66
2022/11/19 06:55:37;;;;;;;18.55;7.65;;;10.00;99.90;;;;;;5011099;28;20054;-67
2022/11/19 06:58:41;;;;;;;16.63;6.03;;;10.10;99.90;;;;;;5011337;28;20037;-67
2022/11/19 07:01:45;;;;;;;16.65;7.07;;;10.20;99.90;;;;;;5011481;28;20049;-67
2022/11/19 07:04:50;;;;;;;26.27;9.57;;;10.20;99.90;;;;;;5010962;28;20061;-67
2022/11/19 07:07:53;;;;;;;25.42;11.00;;;10.20;99.90;;;;;;5010374;28;20041;-67
2022/11/19 07:10:57;;;;;;;23.88;10.38;;;10.30;99.90;;;;;;5012750;28;20045;-67
2022/11/19 07:14:02;;;;;;;30.23;10.75;;;10.40;99.90;;;;;;5015244;28;20048;-67
2022/11/19 07:17:06;;;;;;;28.83;9.82;;;10.40;99.90;;;;;;5014915;28;20049;-67
2022/11/19 07:20:10;;;;;;;26.25;8.45;;;10.50;99.90;;;;;;5014995;28;20093;-67
2022/11/19 07:23:14;;;;;;;18.52;7.80;;;10.60;99.90;;;;;;5014562;28;20041;-67
2022/11/19 07:26:18;;;;;;;22.67;6.82;;;10.80;99.90;;;;;;5015002;28;20056;-67
2022/11/19 07:31:27;;;;;;;12.38;5.50;;;11.10;99.90;;;;;;5129690;27;20152;-54
2022/11/19 07:34:32;;;;;;;19.02;9.07;;;11.30;99.90;;;;;;5127181;28;20024;-53
2022/11/19 07:37:37;;;;;;;22.60;9.27;;;11.40;99.90;;;;;;5128260;28;20050;-56
2022/11/19 07:40:41;;;;;;;22.10;7.75;;;11.50;99.90;;;;;;5127790;28;20050;-53
2022/11/19 07:43:45;;;;;;;11.82;5.35;;;11.50;99.90;;;;;;5127045;28;20023;-56
2022/11/19 07:46:49;;;;;;;11.57;3.88;;;11.60;99.90;;;;;;5127945;28;20032;-55
2022/11/19 07:49:55;;;;;;;14.23;4.88;;;11.60;99.90;;;;;;5127585;28;20042;-55
2022/11/19 07:52:59;;;;;;;18.08;4.60;;;11.60;99.90;;;;;;5128396;28;20042;-54
2022/11/19 07:56:04;;;;;;;12.35;3.60;;;11.60;99.90;;;;;;5128028;28;20054;-55
2022/11/19 07:59:09;;;;;;;12.80;3.78;;;11.60;99.90;;;;;;5128066;28;20050;-53
2022/11/19 08:02:13;;;;;;;14.35;3.88;;;11.70;99.90;;;;;;5127583;28;20034;-56
2022/11/19 08:05:18;;;;;;;12.77;3.45;;;11.80;99.90;;;;;;5116474;28;20043;-56
2022/11/19 08:08:22;;;;;;;9.40;2.58;;;12.00;99.90;;;;;;5101811;28;20043;-56
2022/11/19 08:11:27;;;;;;;13.85;3.53;;;12.10;99.90;;;;;;5099617;28;20035;-57
2022/11/19 08:14:31;;;;;;;10.88;3.45;;;12.10;99.90;;;;;;5112452;28;20047;-55
2022/11/19 08:21:04;;;;;;;;;;;12.30;99.90;;;;;;5105439;28;20051;-57
2022/11/19 08:24:09;;;;;;;10.05;2.85;;;12.40;99.90;;;;;;5115382;28;19985;-56
2022/11/19 08:27:16;;;;;;;12.15;3.00;;;12.50;99.90;;;;;;5102457;28;20051;-55
2022/11/19 08:30:20;;;;;;;14.48;3.53;;;12.70;99.90;;;;;;5108312;28;20507;-54
2022/11/19 08:33:24;;;;;;;19.10;3.90;;;12.80;99.90;;;;;;5103268;28;20406;-55
2022/11/19 08:36:29;;;;;;;14.63;3.25;;;12.80;99.90;;;;;;5105082;28;20047;-53
2022/11/19 08:39:34;;;;;;;18.45;3.58;;;12.50;99.90;;;;;;5101925;28;20051;-55
2022/11/19 08:46:01;;;;;;;12.13;3.22;;;12.40;99.90;;;;;;5094514;28;20048;-53
2022/11/19 08:49:05;;;;;;;19.05;3.92;;;12.60;99.90;;;;;;5104242;28;20407;-52
2022/11/19 08:52:09;;;;;;;10.00;3.38;;;12.70;99.90;;;;;;5113043;28;20054;-55
2022/11/19 08:55:17;;;;;;;13.73;2.63;;;12.90;99.90;;;;;;5112299;28;20311;-54
2022/11/19 08:58:21;;;;;;;12.40;3.28;;;13.10;99.90;;;;;;5113065;28;20031;-54
2022/11/19 09:01:25;;;;;;;10.35;3.25;;;13.20;99.90;;;;;;5112641;28;20054;-55
2022/11/19 09:04:28;;;;;;;11.70;3.15;;;12.80;99.90;;;;;;5111990;28;20045;-55
2022/11/19 09:07:32;;;;;;;9.88;3.53;;;12.80;99.90;;;;;;5112661;28;20046;-53
2022/11/19 09:10:39;;;;;;;10.52;3.45;;;12.90;99.90;;;;;;5112187;28;20031;-56
2022/11/19 09:13:44;;;;;;;10.68;3.50;;;12.70;99.90;;;;;;5111815;28;20046;-53
2022/11/19 09:16:48;;;;;;;10.70;3.42;;;12.70;99.90;;;;;;5112520;28;20039;-53
2022/11/19 09:19:52;;;;;;;18.70;4.57;;;12.70;99.90;;;;;;5112572;28;20052;-56
2022/11/19 09:22:55;;;;;;;14.10;3.10;;;12.70;99.90;;;;;;5112054;28;20043;-53
2022/11/19 09:26:05;;;;;;;13.35;3.40;;;12.70;99.90;;;;;;5112338;28;20047;-53
2022/11/19 09:29:10;;;;;;;13.75;4.18;;;12.80;99.90;;;;;;5112060;28;20047;-55
2022/11/19 09:32:16;;;;;;;10.55;3.35;;;12.50;99.90;;;;;;5112126;28;20043;-57
2022/11/19 09:35:21;;;;;;;15.18;3.67;;;12.60;99.90;;;;;;5100318;28;20043;-53
2022/11/19 09:38:26;;;;;;;17.33;3.80;;;12.60;99.90;;;;;;5097757;28;20046;-53
2022/11/19 09:42:07;;;;;;;7.25;3.20;;;12.60;99.90;;;;;;5111780;28;20555;-54
2022/11/19 09:45:20;;;;;;;15.90;4.45;;;12.60;99.90;;;;;;5095950;28;20036;-54
2022/11/19 09:48:31;;;;;;;14.98;3.58;;;12.60;99.90;;;;;;5096080;28;20039;-54
2022/11/19 09:51:38;;;;;;;18.02;4.93;;;12.60;99.90;;;;;;5111434;28;20042;-53
2022/11/19 09:54:50;;;;;;;12.45;3.63;;;12.70;99.90;;;;;;5094639;28;20446;-53
2022/11/19 09:57:56;;;;;;;11.85;4.18;;;13.50;99.90;;;;;;5096540;28;20565;-53
2022/11/19 10:01:00;;;;;;;11.18;3.40;;;12.90;99.90;;;;;;5090805;28;20513;-54
2022/11/19 10:04:04;;;;;;;11.20;3.00;;;13.00;99.90;;;;;;5090349;28;20043;-56
2022/11/19 10:07:29;;;;;;;12.32;3.05;;;13.00;99.90;;;;;;5091121;28;20051;-56
2022/11/19 10:10:45;;;;;;;15.45;4.07;;;13.00;99.90;;;;;;5090763;28;20043;-55
2022/11/19 10:13:58;;;;;;;14.00;4.68;;;12.90;99.90;;;;;;5083330;28;20043;-57
2022/11/19 10:17:11;;;;;;;21.02;6.72;;;12.80;99.90;;;;;;5088337;28;20051;-56
2022/11/19 10:21:05;;;;;;;20.00;6.30;;;12.80;99.90;;;;;;5090656;28;20646;-54
2022/11/19 10:24:16;;;;;;;26.77;6.82;;;12.80;99.90;;;;;;5089724;28;20047;-55
2022/11/19 10:27:28;;;;;;;;;;;12.50;99.90;;;;;;5090903;28;20054;-54
2022/11/19 10:30:32;;;;;;;23.63;7.65;;;12.50;99.90;;;;;;5089821;28;19935;-56
2022/11/19 10:34:03;;;;;;;21.30;7.95;;;12.50;99.90;;;;;;5089467;28;20046;-56
2022/11/19 10:37:12;;;;;;;19.08;5.78;;;12.50;99.90;;;;;;5090367;28;20047;-56
2022/11/19 10:40:21;;;;;;;24.00;6.40;;;12.60;99.90;;;;;;5090028;28;20063;-55
2022/11/19 10:43:35;;;;;;;12.80;4.60;;;12.60;99.90;;;;;;5087530;28;20427;-55
2022/11/19 10:46:41;;;;;;;7.60;3.85;;;12.60;99.90;;;;;;5085608;28;20066;-56
2022/11/19 10:49:52;;;;;;;13.70;4.68;;;12.60;99.90;;;;;;5094510;28;20032;-54
2022/11/19 10:53:17;;;;;;;16.55;4.25;;;12.60;99.90;;;;;;5090100;28;20038;-55
2022/11/19 10:56:31;;;;;;;10.77;3.58;;;12.60;99.90;;;;;;5093876;28;20055;-55
2022/11/19 10:59:35;;;;;;;14.75;3.53;;;12.60;99.90;;;;;;5069985;28;20399;-53
2022/11/19 11:02:43;;;;;;;6.93;2.97;;;12.50;99.90;;;;;;5069785;28;20063;-56
2022/11/19 11:06:00;;;;;;;15.85;4.07;;;12.30;99.90;;;;;;5069538;28;20033;-55
2022/11/19 11:09:04;;;;;;;11.40;3.60;;;12.30;99.90;;;;;;5069773;28;20058;-56
2022/11/19 11:15:49;;;;;;;15.15;3.25;;;12.10;99.90;;;;;;5069409;28;20430;-55
2022/11/19 11:18:56;;;;;;;12.13;3.50;;;12.00;99.90;;;;;;5069964;28;20501;-55
2022/11/19 11:22:00;;;;;;;10.52;3.58;;;12.00;99.90;;;;;;5069663;28;20043;-54
2022/11/19 11:25:22;;;;;;;10.15;3.20;;;12.00;99.90;;;;;;5069088;28;20080;-56
2022/11/19 11:28:28;;;;;;;8.70;4.00;;;12.00;99.90;;;;;;5069947;28;20541;-56
2022/11/19 11:31:33;;;;;;;14.35;4.22;;;12.10;99.90;;;;;;5069334;28;20066;-55
2022/11/19 11:34:41;;;;;;;19.73;8.32;;;12.10;99.90;;;;;;5069041;28;20043;-56
2022/11/19 11:37:45;;;;;;;22.70;11.13;;;12.10;99.90;;;;;;5069586;28;20032;-54
2022/11/19 11:41:03;;;;;;;30.35;14.40;;;12.10;99.90;;;;;;5069409;28;20047;-55
2022/11/19 11:44:19;;;;;;;30.48;13.93;;;12.10;99.90;;;;;;5076692;22;20440;-51
2022/11/19 11:47:35;;;;;;;23.65;11.35;;;12.10;99.90;;;;;;5029109;28;20053;-53
2022/11/19 11:50:44;;;;;;;28.08;13.75;;;12.20;99.90;;;;;;5028776;28;20052;-55
2022/11/19 11:54:04;;;;;;;21.90;11.23;;;12.10;99.90;;;;;;5028500;28;20044;-54
2022/11/19 11:57:19;;;;;;;23.17;10.50;;;12.10;99.90;;;;;;5029211;28;20408;-50
2022/11/19 12:00:42;;;;;;;14.90;5.35;;;12.10;99.90;;;;;;5028992;28;20079;-53
2022/11/19 12:03:57;;;;;;;13.63;4.93;;;12.20;99.90;;;;;;5028427;28;20520;-48
2022/11/19 12:07:01;;;;;;;11.73;4.32;;;12.20;99.90;;;;;;5028883;28;20408;-52
2022/11/19 12:10:24;;;;;;;12.57;4.15;;;12.30;99.90;;;;;;5029086;28;20044;-51
2022/11/19 12:13:55;;;;;;;15.05;4.00;;;12.30;99.90;;;;;;5028424;28;20515;-48
2022/11/19 12:17:30;;;;;;;17.75;5.30;;;12.30;99.90;;;;;;5030669;28;20072;-51
2022/11/19 12:20:52;;;;;;;16.42;5.20;;;12.30;99.90;;;;;;5019966;28;20045;-48
2022/11/19 12:24:41;;;;;;;12.23;5.50;;;12.20;99.90;;;;;;5031722;28;20052;-49
2022/11/19 12:28:11;;;;;;;13.35;4.78;;;12.10;99.90;;;;;;5032421;28;20040;-49
2022/11/19 12:31:38;;;;;;;19.15;9.60;;;12.20;99.90;;;;;;5032163;28;20404;-51
2022/11/19 12:35:03;;;;;;;15.85;6.10;;;12.30;99.90;;;;;;5031432;28;20040;-50
2022/11/19 12:38:28;;;;;;;14.95;5.57;;;12.30;99.90;;;;;;5032756;28;20056;-52
2022/11/19 12:41:41;;;;;;;14.90;6.25;;;12.30;99.90;;;;;;5031795;28;20048;-48
2022/11/19 12:45:01;;;;;;;16.30;5.82;;;12.20;99.90;;;;;;5031301;28;20044;-52
2022/11/19 12:48:28;;;;;;;12.98;5.65;;;12.20;99.90;;;;;;5031929;28;20044;-51
2022/11/19 12:51:57;;;;;;;14.90;5.68;;;12.20;99.90;;;;;;5031593;28;20044;-50
2022/11/19 12:55:15;;;;;;;13.80;6.30;;;12.20;99.90;;;;;;5031340;28;20037;-48
2022/11/19 12:58:40;;;;;;;25.30;11.75;;;12.10;99.90;;;;;;5031907;28;20060;-48
2022/11/19 13:01:49;;;;;;;21.70;12.50;;;12.10;99.90;;;;;;5031751;28;20056;-47
2022/11/19 13:05:38;;;;;;;16.48;8.52;;;12.10;99.90;;;;;;5030831;28;20064;-51
2022/11/19 13:08:50;;;;;;;18.05;8.65;;;12.20;99.90;;;;;;5032253;28;20052;-48
2022/11/19 13:12:01;;;;;;;15.52;7.95;;;12.30;99.90;;;;;;5031580;28;20048;-48
2022/11/19 13:15:14;;;;;;;19.08;6.63;;;12.30;99.90;;;;;;5030899;28;20049;-49
2022/11/19 13:18:20;;;;;;;15.00;7.45;;;12.30;99.90;;;;;;5031616;28;20408;-52
2022/11/19 13:21:44;;;;;;;14.10;5.88;;;12.30;99.90;;;;;;5031535;28;20048;-50
2022/11/19 13:24:56;;;;;;;14.98;5.25;;;12.30;99.90;;;;;;5030440;28;20412;-51
2022/11/19 13:28:04;;;;;;;15.77;5.60;;;12.30;99.90;;;;;;5030859;28;20056;-50
2022/11/19 13:31:37;;;;;;;13.15;5.88;;;12.20;99.90;;;;;;5031072;28;20052;-48
2022/11/19 13:34:55;;;;;;;12.30;5.55;;;12.20;99.90;;;;;;5030700;28;20512;-50
2022/11/19 13:38:17;;;;;;;16.13;5.18;;;12.10;99.90;;;;;;5031171;28;20041;-48
2022/11/19 13:44:37;;;;;;;16.02;5.97;;;12.10;99.90;;;;;;5031238;28;20044;-53
2022/11/19 13:45:03;;;;;;;12.23;4.20;;;12.10;99.90;;;;;;5030601;28;20515;-48
2022/11/19 13:48:28;;;;;;;13.05;4.78;;;12.20;99.90;;;;;;5030783;28;20048;-49
2022/11/19 13:51:42;;;;;;;12.48;4.88;;;12.30;99.90;;;;;;5030891;28;20048;-49
2022/11/19 13:54:46;;;;;;;15.48;4.78;;;12.30;99.90;;;;;;5029798;28;20050;-49
2022/11/19 13:57:51;;;;;;;11.85;4.60;;;12.20;99.90;;;;;;5030587;28;20053;-49
2022/11/19 14:01:12;;;;;;;17.00;5.45;;;12.10;99.90;;;;;;5030515;28;20523;-48
2022/11/19 14:04:36;;;;;;;26.50;12.20;;;11.90;99.90;;;;;;5030088;28;20056;-49
2022/11/19 14:08:09;;;;;;;10.23;5.82;;;11.90;99.90;;;;;;5010572;28;20044;-51
2022/11/19 14:11:35;;;;;;;14.55;6.72;;;11.80;99.90;;;;;;5030096;28;20048;-48
2022/11/19 14:26:42;;;;;;;17.10;8.13;;;11.90;99.90;;;;;;5030280;28;20037;-53
2022/11/19 14:29:45;;;;;;;13.50;5.40;;;11.90;99.90;;;;;;5030345;28;20056;-52
2022/11/19 14:32:51;;;;;;;20.27;9.57;;;11.60;99.90;;;;;;5030034;28;20052;-50
2022/11/19 14:35:55;;;;;;;14.13;6.95;;;11.60;99.90;;;;;;5030062;28;20049;-53
2022/11/19 14:39:01;;;;;;;14.68;6.80;;;11.50;99.90;;;;;;5029280;28;20040;-53
2022/11/19 14:42:21;;;;;;;14.95;6.95;;;11.60;99.90;;;;;;5029862;28;20045;-48
2022/11/19 14:45:26;;;;;;;14.00;6.93;;;11.50;99.90;;;;;;5028842;28;20045;-48
2022/11/19 14:48:32;;;;;;;14.18;6.97;;;11.60;99.90;;;;;;5029809;28;20048;-52
2022/11/19 14:51:39;;;;;;;16.00;8.48;;;11.50;99.90;;;;;;5029299;28;20048;-51
2022/11/19 14:54:44;;;;;;;15.60;8.02;;;11.60;99.90;;;;;;5029022;28;20047;-49
2022/11/19 14:58:06;;;;;;;24.67;10.10;;;11.50;99.90;;;;;;5029480;28;20045;-47
2022/11/19 15:01:14;;;;;;;;;;;11.20;99.90;;;;;;5030496;28;20595;-48
2022/11/19 15:04:21;;;;;;;25.45;9.60;;;11.20;99.90;;;;;;5029155;28;19936;-53
2022/11/19 15:07:40;;;;;;;22.88;10.15;;;11.20;99.90;;;;;;5029756;28;20049;-49
2022/11/19 15:11:03;;;;;;;18.00;8.13;;;11.00;99.90;;;;;;5029864;28;20037;-55
2022/11/19 15:14:32;;;;;;;21.50;9.90;;;11.10;99.90;;;;;;5028877;28;20134;-50
2022/11/19 15:17:37;;;;;;;31.73;14.40;;;11.00;99.90;;;;;;5029331;28;20036;-49
2022/11/19 15:21:15;;;;;;;31.67;14.57;;;11.00;99.90;;;;;;5029475;28;20440;-49
2022/11/19 15:24:28;;;;;;;40.35;18.42;;;11.00;99.90;;;;;;5028676;28;20056;-49
2022/11/19 15:27:47;;;;;;;34.60;17.38;;;11.00;99.90;;;;;;5029211;28;20056;-48
2022/11/19 15:31:04;;;;;;;36.28;18.50;;;11.00;99.90;;;;;;5028536;28;20044;-48
2022/11/19 15:34:50;;;;;;;32.67;15.45;;;11.00;99.90;;;;;;5028395;28;20070;-49
2022/11/19 15:38:06;;;;;;;27.23;16.13;;;11.00;99.90;;;;;;5029301;28;20076;-49
2022/11/19 15:41:14;;;;;;;25.05;14.93;;;11.10;99.90;;;;;;5029368;28;20409;-50
2022/11/19 15:44:20;;;;;;;22.25;12.75;;;11.10;99.90;;;;;;5028594;28;20068;-53
2022/11/19 15:47:33;;;;;;;20.95;11.00;;;11.10;99.90;;;;;;5029012;28;20052;-50
2022/11/19 15:50:40;;;;;;;;;;;11.00;99.90;;;;;;5029474;28;20061;-49
2022/11/19 15:53:58;;;;;;;17.88;10.68;;;11.00;99.90;;;;;;5032311;28;19920;-50
2022/11/19 15:57:14;;;;;;;25.58;15.93;;;11.00;99.90;;;;;;5032658;28;20044;-49
2022/11/19 16:00:20;;;;;;;15.57;9.07;;;11.00;99.90;;;;;;5032895;28;20048;-48
2022/11/19 16:03:24;;;;;;;11.82;8.27;;;11.00;99.90;;;;;;5032141;28;20060;-49
2022/11/19 16:06:31;;;;;;;23.27;12.13;;;11.00;99.90;;;;;;5032859;28;20052;-53
2022/11/19 16:09:37;;;;;;;24.95;12.90;;;11.00;99.90;;;;;;5032698;28;20036;-48
2022/11/19 16:19:42;;;;;;;16.45;8.77;;;11.00;99.90;;;;;;5032483;28;20048;-49
2022/11/19 16:23:09;;;;;;;13.82;8.60;;;11.00;99.90;;;;;;5032624;28;20052;-49
2022/11/19 16:26:14;;;;;;;13.57;7.32;;;11.00;99.90;;;;;;5032643;28;20048;-51
2022/11/19 16:29:20;;;;;;;13.90;7.25;;;11.00;99.90;;;;;;5032216;28;20048;-50
2022/11/19 16:32:26;;;;;;;17.33;6.80;;;11.00;99.90;;;;;;5032032;28;20048;-50
2022/11/19 16:35:31;;;;;;;11.93;5.45;;;11.10;99.90;;;;;;5031805;28;20408;-53
2022/11/19 16:38:37;;;;;;;11.30;6.82;;;11.10;99.90;;;;;;5032618;28;20040;-51
2022/11/19 16:45:16;;;;;;;10.20;6.20;;;11.10;99.90;;;;;;5031805;28;20060;-53
2022/11/19 16:48:41;;;;;;;11.70;6.07;;;11.10;99.90;;;;;;5032077;28;20044;-48
2022/11/19 16:51:52;;;;;;;14.93;6.75;;;11.10;99.90;;;;;;5031638;28;20041;-52
2022/11/19 16:54:56;;;;;;;11.15;6.30;;;11.10;99.90;;;;;;5031199;28;20400;-51
2022/11/19 16:58:37;;;;;;;9.98;6.53;;;11.10;99.90;;;;;;5031928;28;20052;-52
2022/11/19 17:01:49;;;;;;;14.40;8.60;;;11.00;99.90;;;;;;4954481;28;20536;-49